createdAt,value
2018-03-27T00:00:32.834Z,101417.80
2018-03-27T00:01:38.244Z,101419.47
2018-03-27T00:02:43.106Z,101417.78
2018-03-27T00:03:47.865Z,101418.63
2018-03-27T00:04:52.130Z,101415.22
2018-03-27T00:05:56.335Z,101422.88
2018-03-27T00:07:00.587Z,101419.90
2018-03-27T00:08:06.935Z,101424.97
2018-03-27T00:09:11.872Z,101419.91
2018-03-27T00:10:18.077Z,101423.30
2018-03-27T00:11:22.282Z,101418.62
2018-03-27T00:12:26.504Z,101419.91
2018-03-27T00:13:30.691Z,101418.62
2018-03-27T00:14:38.313Z,101419.89
2018-03-27T00:15:43.630Z,101416.50
2018-03-27T00:16:48.324Z,101421.56
2018-03-27T00:17:52.601Z,101415.65
2018-03-27T00:18:56.809Z,101422.02
2018-03-27T00:20:00.996Z,101413.52
2018-03-27T00:21:06.457Z,101413.94
2018-03-27T00:22:12.966Z,101409.70
2018-03-27T00:23:18.265Z,101416.08
2018-03-27T00:24:22.543Z,101411.41
2018-03-27T00:25:26.879Z,101411.83
2018-03-27T00:26:31.174Z,101411.86
2018-03-27T00:27:53.659Z,101407.18
2018-03-27T00:29:17.389Z,101406.33
2018-03-27T00:30:39.952Z,101399.98
2018-03-27T00:32:04.252Z,101407.19
2018-03-27T00:33:26.459Z,101405.89
2018-03-27T00:34:48.445Z,101405.48
2018-03-27T00:36:10.807Z,101410.98
2018-03-27T00:37:34.137Z,101413.52
2018-03-27T00:38:57.376Z,101407.11
2018-03-27T00:40:20.063Z,101410.48
2018-03-27T00:43:27.988Z,101406.23
2018-03-27T00:44:33.379Z,101408.78
2018-03-27T00:45:38.891Z,101407.94
2018-03-27T00:46:43.963Z,101407.88
2018-03-27T00:47:48.668Z,101406.20
2018-03-27T00:48:53.657Z,101407.89
2018-03-27T00:49:57.902Z,101414.23
2018-03-27T00:51:02.909Z,101407.44
2018-03-27T00:52:09.368Z,101410.42
2018-03-27T00:53:15.620Z,101404.06
2018-03-27T00:54:20.251Z,101407.00
2018-03-27T00:55:24.848Z,101414.21
2018-03-27T00:56:29.053Z,101408.69
2018-03-27T00:57:33.721Z,101409.94
2018-03-27T00:58:39.930Z,101407.84
2018-03-27T00:59:44.919Z,101406.58
2018-03-27T01:00:50.195Z,101404.88
2018-03-27T01:01:54.406Z,101408.24
2018-03-27T01:02:58.594Z,101409.09
2018-03-27T01:04:03.608Z,101408.59
2018-03-27T01:05:10.272Z,101408.19
2018-03-27T01:06:15.977Z,101403.49
2018-03-27T01:07:20.390Z,101408.55
2018-03-27T01:08:24.620Z,101402.64
2018-03-27T01:09:28.819Z,101404.75
2018-03-27T01:10:34.983Z,101403.05
2018-03-27T01:11:40.369Z,101402.64
2018-03-27T01:12:47.414Z,101401.74
2018-03-27T01:13:51.751Z,101403.81
2018-03-27T01:14:56.705Z,101400.00
2018-03-27T01:16:00.982Z,101397.02
2018-03-27T01:17:07.479Z,101399.50
2018-03-27T01:18:13.142Z,101401.22
2018-03-27T01:19:18.338Z,101400.00
2018-03-27T01:20:23.348Z,101396.23
2018-03-27T01:21:27.604Z,101393.28
2018-03-27T01:22:32.482Z,101394.55
2018-03-27T01:23:39.811Z,101392.00
2018-03-27T01:24:44.831Z,101389.87
2018-03-27T01:25:50.720Z,101389.87
2018-03-27T01:26:54.941Z,101386.89
2018-03-27T01:27:59.152Z,101386.05
2018-03-27T01:29:04.214Z,101388.59
2018-03-27T01:30:11.908Z,101383.13
2018-03-27T01:31:17.434Z,101380.58
2018-03-27T01:32:21.709Z,101383.11
2018-03-27T01:33:25.912Z,101384.81
2018-03-27T01:34:30.128Z,101381.03
2018-03-27T01:35:36.365Z,101382.73
2018-03-27T01:36:43.655Z,101382.74
2018-03-27T01:37:48.607Z,101384.41
2018-03-27T01:38:52.804Z,101375.11
2018-03-27T01:39:57.004Z,101378.12
2018-03-27T01:41:01.245Z,101371.33
2018-03-27T01:42:08.348Z,101375.98
2018-03-27T01:43:13.216Z,101373.02
2018-03-27T01:44:18.245Z,101373.03
2018-03-27T01:45:22.858Z,101370.07
2018-03-27T01:46:27.046Z,101372.22
2018-03-27T01:47:32.696Z,101371.80
2018-03-27T01:48:38.796Z,101374.36
2018-03-27T01:49:44.375Z,101376.05
2018-03-27T01:50:49.402Z,101367.59
2018-03-27T01:51:54.399Z,101372.20
2018-03-27T01:52:58.657Z,101371.30
2018-03-27T01:54:06.653Z,101366.66
2018-03-27T01:55:12.677Z,101365.00
2018-03-27T01:56:18.382Z,101365.02
2018-03-27T01:57:22.595Z,101363.73
2018-03-27T01:58:26.996Z,101367.52
2018-03-27T01:59:32.671Z,101362.45
2018-03-27T02:00:38.731Z,101361.62
2018-03-27T02:01:44.286Z,101357.81
2018-03-27T02:02:49.224Z,101357.37
2018-03-27T02:03:53.464Z,101356.52
2018-03-27T02:04:58.450Z,101357.33
2018-03-27T02:06:03.377Z,101359.02
2018-03-27T02:07:09.769Z,101353.93
2018-03-27T02:08:15.808Z,101351.77
2018-03-27T02:09:21.028Z,101354.31
2018-03-27T02:10:25.360Z,101354.28
2018-03-27T02:11:36.820Z,101352.14
2018-03-27T02:12:48.484Z,101350.44
2018-03-27T02:13:58.185Z,101356.39
2018-03-27T02:15:08.996Z,101351.28
2018-03-27T02:16:18.862Z,101351.28
2018-03-27T02:17:29.512Z,101348.27
2018-03-27T02:18:40.145Z,101349.51
2018-03-27T02:19:50.911Z,101346.11
2018-03-27T02:21:00.962Z,101343.98
2018-03-27T02:22:06.668Z,101344.41
2018-03-27T02:24:52.512Z,101336.45
2018-03-27T02:25:56.731Z,101337.30
2018-03-27T02:27:01.313Z,101340.67
2018-03-27T02:28:08.633Z,101338.98
2018-03-27T02:29:14.837Z,101341.11
2018-03-27T02:30:20.465Z,101344.12
2018-03-27T02:31:24.691Z,101339.88
2018-03-27T02:32:28.957Z,101344.55
2018-03-27T02:34:41.265Z,101340.34
2018-03-27T02:35:48.160Z,101344.16
2018-03-27T02:36:52.432Z,101340.36
2018-03-27T02:37:57.396Z,101342.89
2018-03-27T02:39:01.729Z,101337.39
2018-03-27T02:40:09.575Z,101343.73
2018-03-27T02:41:15.207Z,101338.22
2018-03-27T02:42:20.586Z,101336.93
2018-03-27T02:43:24.857Z,101340.77
2018-03-27T02:44:29.824Z,101344.17
2018-03-27T02:45:36.685Z,101342.93
2018-03-27T02:46:42.403Z,101338.66
2018-03-27T02:47:47.999Z,101341.63
2018-03-27T02:48:52.253Z,101340.80
2018-03-27T02:49:57.249Z,101342.48
2018-03-27T02:51:02.685Z,101345.42
2018-03-27T02:52:10.262Z,101345.41
2018-03-27T02:53:16.251Z,101344.53
2018-03-27T02:54:21.019Z,101347.11
2018-03-27T02:55:25.227Z,101343.74
2018-03-27T02:56:29.468Z,101342.88
2018-03-27T02:57:36.971Z,101345.37
2018-03-27T02:58:42.584Z,101347.05
2018-03-27T02:59:48.251Z,101345.78
2018-03-27T03:00:52.474Z,101340.70
2018-03-27T03:01:57.160Z,101346.66
2018-03-27T03:03:03.061Z,101342.84
2018-03-27T03:04:10.285Z,101342.37
2018-03-27T03:05:16.527Z,101341.53
2018-03-27T03:06:21.079Z,101346.96
2018-03-27T03:07:25.368Z,101347.32
2018-03-27T03:08:29.563Z,101343.48
2018-03-27T03:09:37.930Z,101344.32
2018-03-27T03:10:44.515Z,101337.92
2018-03-27T03:11:49.336Z,101340.94
2018-03-27T03:12:53.583Z,101337.56
2018-03-27T03:13:57.797Z,101336.30
2018-03-27T03:15:02.541Z,101340.18
2018-03-27T03:16:09.191Z,101335.10
2018-03-27T03:17:15.441Z,101336.37
2018-03-27T03:18:20.865Z,101336.41
2018-03-27T03:19:25.863Z,101333.47
2018-03-27T03:20:30.048Z,101339.75
2018-03-27T03:21:35.338Z,101334.24
2018-03-27T03:22:41.178Z,101330.88
2018-03-27T03:23:47.443Z,101329.61
2018-03-27T03:24:51.830Z,101331.25
2018-03-27T03:25:56.033Z,101326.59
2018-03-27T03:27:00.232Z,101321.52
2018-03-27T03:28:06.811Z,101326.17
2018-03-27T03:29:13.920Z,101320.70
2018-03-27T03:30:19.469Z,101324.52
2018-03-27T03:31:24.434Z,101324.13
2018-03-27T03:32:28.632Z,101322.83
2018-03-27T03:33:34.418Z,101322.42
2018-03-27T03:34:40.960Z,101319.01
2018-03-27T03:35:46.806Z,101322.85
2018-03-27T03:36:51.364Z,101321.09
2018-03-27T03:37:55.569Z,101315.98
2018-03-27T03:38:59.781Z,101318.51
2018-03-27T03:40:07.701Z,101318.89
2018-03-27T03:41:14.671Z,101317.18
2018-03-27T03:42:19.926Z,101315.94
2018-03-27T03:43:24.343Z,101314.69
2018-03-27T03:44:29.315Z,101319.35
2018-03-27T03:45:36.162Z,101317.25
2018-03-27T03:46:43.402Z,101316.38
2018-03-27T03:47:48.717Z,101320.52
2018-03-27T03:48:52.905Z,101319.14
2018-03-27T03:49:57.103Z,101315.75
2018-03-27T03:51:01.436Z,101315.81
2018-03-27T03:52:08.704Z,101312.88
2018-03-27T03:53:15.993Z,101313.31
2018-03-27T03:54:20.608Z,101314.19
2018-03-27T03:55:24.823Z,101309.09
2018-03-27T03:56:29.010Z,101303.12
2018-03-27T03:57:38.962Z,101304.83
2018-03-27T03:58:47.056Z,101306.92
2018-03-27T03:59:51.389Z,101305.20
2018-03-27T04:00:55.593Z,101306.46
2018-03-27T04:01:59.806Z,101302.60
2018-03-27T04:03:10.228Z,101306.38
2018-03-27T04:04:16.171Z,101309.33
2018-03-27T04:05:20.648Z,101303.41
2018-03-27T04:06:24.860Z,101299.64
2018-03-27T04:07:29.060Z,101298.80
2018-03-27T04:08:35.144Z,101305.98
2018-03-27T04:09:42.847Z,101303.45
2018-03-27T04:10:47.932Z,101306.80
2018-03-27T04:11:52.143Z,101298.75
2018-03-27T04:12:56.412Z,101297.50
2018-03-27T04:14:00.664Z,101292.85
2018-03-27T04:15:08.762Z,101293.74
2018-03-27T04:16:14.843Z,101288.68
2018-03-27T04:17:19.644Z,101289.94
2018-03-27T04:18:23.908Z,101293.70
2018-03-27T04:19:28.120Z,101290.73
2018-03-27T04:20:33.682Z,101292.89
2018-03-27T04:21:41.666Z,101296.19
2018-03-27T04:22:46.671Z,101294.44
2018-03-27T04:23:51.028Z,101298.27
2018-03-27T04:24:56.015Z,101289.77
2018-03-27T04:26:00.244Z,101287.59
2018-03-27T04:27:08.397Z,101293.08
2018-03-27T04:28:14.306Z,101290.93
2018-03-27T04:29:20.930Z,101287.50
2018-03-27T04:30:25.184Z,101291.72
2018-03-27T04:31:29.392Z,101286.62
2018-03-27T04:32:37.344Z,101290.77
2018-03-27T04:33:42.707Z,101284.76
2018-03-27T04:34:47.988Z,101290.23
2018-03-27T04:35:52.662Z,101286.78
2018-03-27T04:36:56.867Z,101288.44
2018-03-27T04:38:01.057Z,101290.11
2018-03-27T04:39:10.337Z,101289.70
2018-03-27T04:40:17.620Z,101293.50
2018-03-27T04:41:21.984Z,101289.72
2018-03-27T04:42:26.178Z,101291.03
2018-03-27T04:43:31.165Z,101294.00
2018-03-27T04:44:39.844Z,101296.52
2018-03-27T04:45:45.129Z,101298.25
2018-03-27T04:46:51.239Z,101293.63
2018-03-27T04:47:55.821Z,101294.09
2018-03-27T04:49:00.801Z,101293.28
2018-03-27T04:50:09.025Z,101285.72
2018-03-27T04:51:13.918Z,101287.02
2018-03-27T04:52:18.746Z,101284.51
2018-03-27T04:53:23.058Z,101289.59
2018-03-27T04:54:27.257Z,101287.93
2018-03-27T04:55:31.607Z,101285.41
2018-03-27T04:56:40.007Z,101280.77
2018-03-27T04:57:45.340Z,101284.98
2018-03-27T04:58:49.976Z,101287.52
2018-03-27T04:59:54.561Z,101284.51
2018-03-27T05:00:58.770Z,101283.59
2018-03-27T05:02:04.088Z,101279.78
2018-03-27T05:03:10.356Z,101278.95
2018-03-27T05:04:16.263Z,101277.28
2018-03-27T05:05:21.027Z,101278.52
2018-03-27T05:06:25.238Z,101281.48
2018-03-27T05:07:30.232Z,101276.84
2018-03-27T05:08:36.566Z,101275.20
2018-03-27T05:09:44.062Z,101272.68
2018-03-27T05:10:49.971Z,101273.95
2018-03-27T05:11:54.206Z,101276.02
2018-03-27T05:12:58.452Z,101276.84
2018-03-27T05:14:04.894Z,101273.02
2018-03-27T05:15:12.368Z,101272.98
2018-03-27T05:16:17.858Z,101278.44
2018-03-27T05:17:22.096Z,101273.28
2018-03-27T05:18:26.339Z,101276.64
2018-03-27T05:19:30.577Z,101282.11
2018-03-27T05:20:37.555Z,101280.84
2018-03-27T05:21:44.525Z,101273.70
2018-03-27T05:22:49.908Z,101275.88
2018-03-27T05:23:54.152Z,101277.58
2018-03-27T05:24:58.376Z,101268.24
2018-03-27T05:26:03.217Z,101273.69
2018-03-27T05:27:10.624Z,101269.02
2018-03-27T05:28:16.704Z,101272.30
2018-03-27T05:29:22.478Z,101274.70
2018-03-27T05:30:26.751Z,101275.95
2018-03-27T05:31:31.795Z,101274.62
2018-03-27T05:32:40.025Z,101270.80
2018-03-27T05:33:45.269Z,101270.84
2018-03-27T05:34:50.507Z,101271.63
2018-03-27T05:35:55.112Z,101273.61
2018-03-27T05:36:59.336Z,101274.83
2018-03-27T05:38:04.462Z,101273.95
2018-03-27T05:39:13.641Z,101276.44
2018-03-27T05:40:19.715Z,101273.87
2018-03-27T05:41:23.971Z,101271.33
2018-03-27T05:42:28.182Z,101274.71
2018-03-27T05:43:33.612Z,101273.06
2018-03-27T05:44:40.048Z,101268.05
2018-03-27T05:45:45.595Z,101271.11
2018-03-27T05:46:50.905Z,101270.34
2018-03-27T05:47:55.125Z,101266.52
2018-03-27T05:48:59.324Z,101267.31
2018-03-27T05:50:06.959Z,101269.38
2018-03-27T05:51:13.083Z,101269.27
2018-03-27T05:52:19.339Z,101266.67
2018-03-27T05:53:23.548Z,101267.13
2018-03-27T05:54:27.757Z,101266.80
2018-03-27T05:55:34.233Z,101262.60
2018-03-27T05:56:41.404Z,101263.52
2018-03-27T05:57:47.296Z,101267.27
2018-03-27T05:58:51.632Z,101266.00
2018-03-27T05:59:55.855Z,101260.53
2018-03-27T06:01:00.839Z,101260.11
2018-03-27T06:02:07.583Z,101258.48
2018-03-27T06:03:14.908Z,101264.34
2018-03-27T06:04:20.976Z,101258.45
2018-03-27T06:05:25.255Z,101263.94
2018-03-27T06:06:29.469Z,101263.48
2018-03-27T06:07:35.246Z,101253.80
2018-03-27T06:08:41.867Z,101266.05
2018-03-27T06:09:48.156Z,101255.53
2018-03-27T06:10:52.387Z,101264.37
2018-03-27T06:11:56.615Z,101263.94
2018-03-27T06:13:01.578Z,101271.92
2018-03-27T06:14:08.981Z,101270.19
2018-03-27T06:15:15.733Z,101264.24
2018-03-27T06:16:20.378Z,101260.89
2018-03-27T06:17:24.593Z,101260.49
2018-03-27T06:18:29.204Z,101263.47
2018-03-27T06:19:35.632Z,101260.53
2018-03-27T06:20:41.108Z,101261.86
2018-03-27T06:21:46.451Z,101257.70
2018-03-27T06:22:51.006Z,101256.91
2018-03-27T06:23:56.037Z,101259.88
2018-03-27T06:25:00.301Z,101259.45
2018-03-27T06:26:08.617Z,101257.78
2018-03-27T06:27:14.910Z,101258.72
2018-03-27T06:28:20.032Z,101257.11
2018-03-27T06:29:25.095Z,101252.94
2018-03-27T06:30:30.062Z,101257.13
2018-03-27T06:31:37.344Z,101252.54
2018-03-27T06:32:42.360Z,101249.66
2018-03-27T06:33:48.712Z,101253.52
2018-03-27T06:34:52.961Z,101255.17
2018-03-27T06:35:57.173Z,101256.02
2018-03-27T06:37:01.841Z,101253.97
2018-03-27T06:38:07.303Z,101251.92
2018-03-27T06:39:13.935Z,101253.28
2018-03-27T06:40:19.802Z,101256.23
2018-03-27T06:41:23.997Z,101258.41
2018-03-27T06:42:28.963Z,101246.14
2018-03-27T06:43:33.707Z,101248.27
2018-03-27T06:44:40.928Z,101242.30
2018-03-27T06:45:46.447Z,101238.95
2018-03-27T06:46:50.739Z,101244.88
2018-03-27T06:47:54.992Z,101242.35
2018-03-27T06:48:59.967Z,101241.52
2018-03-27T06:50:05.732Z,101246.60
2018-03-27T06:51:13.017Z,101247.45
2018-03-27T06:52:18.760Z,101242.78
2018-03-27T06:53:23.036Z,101239.44
2018-03-27T06:54:27.246Z,101241.61
2018-03-27T06:55:31.451Z,101237.37
2018-03-27T06:56:38.217Z,101242.05
2018-03-27T06:57:43.733Z,101234.46
2018-03-27T06:58:48.909Z,101237.88
2018-03-27T06:59:53.110Z,101233.64
2018-03-27T07:00:57.316Z,101228.56
2018-03-27T07:02:02.936Z,101234.89
2018-03-27T07:03:08.134Z,101231.95
2018-03-27T07:04:13.381Z,101226.48
2018-03-27T07:05:19.694Z,101234.13
2018-03-27T07:06:23.865Z,101233.70
2018-03-27T07:07:28.097Z,101232.41
2018-03-27T07:08:37.100Z,101236.70
2018-03-27T07:09:43.357Z,101234.22
2018-03-27T07:10:49.527Z,101228.75
2018-03-27T07:11:54.505Z,101229.21
2018-03-27T07:12:58.709Z,101230.09
2018-03-27T07:14:04.157Z,101230.10
2018-03-27T07:15:10.714Z,101225.02
2018-03-27T07:16:16.335Z,101227.99
2018-03-27T07:17:20.770Z,101228.45
2018-03-27T07:18:24.962Z,101225.48
2018-03-27T07:19:29.949Z,101225.91
2018-03-27T07:20:38.419Z,101219.56
2018-03-27T07:21:45.411Z,101222.13
2018-03-27T07:22:51.168Z,101219.13
2018-03-27T07:23:55.371Z,101223.35
2018-03-27T07:24:59.574Z,101218.70
2018-03-27T07:26:08.535Z,101221.70
2018-03-27T07:27:15.919Z,101215.77
2018-03-27T07:28:22.454Z,101214.08
2018-03-27T07:29:26.680Z,101214.52
2018-03-27T07:30:30.872Z,101214.52
2018-03-27T07:31:37.176Z,101211.13
2018-03-27T07:32:43.061Z,101211.56
2018-03-27T07:33:49.116Z,101206.91
2018-03-27T07:34:53.333Z,101207.31
2018-03-27T07:35:57.552Z,101208.17
2018-03-27T07:37:02.161Z,101206.47
2018-03-27T07:38:09.116Z,101203.48
2018-03-27T07:39:14.537Z,101204.77
2018-03-27T07:40:19.240Z,101201.80
2018-03-27T07:41:23.451Z,101200.52
2018-03-27T07:42:27.672Z,101197.55
2018-03-27T07:43:34.764Z,101197.97
2018-03-27T07:44:41.468Z,101200.95
2018-03-27T07:45:46.383Z,101199.69
2018-03-27T07:46:50.811Z,101197.13
2018-03-27T07:47:54.998Z,101200.13
2018-03-27T07:48:59.960Z,101196.30
2018-03-27T07:50:06.010Z,101203.93
2018-03-27T07:51:11.518Z,101203.08
2018-03-27T07:52:17.467Z,101195.01
2018-03-27T07:53:21.782Z,101195.44
2018-03-27T07:54:26.752Z,101192.89
2018-03-27T07:55:30.941Z,101194.60
2018-03-27T07:56:37.409Z,101196.69
2018-03-27T07:57:42.431Z,101195.42
2018-03-27T07:58:48.555Z,101191.18
2018-03-27T07:59:52.759Z,101187.78
2018-03-27T08:00:56.989Z,101189.08
2018-03-27T08:02:02.113Z,101183.56
2018-03-27T08:03:09.039Z,101189.48
2018-03-27T08:04:13.944Z,101186.13
2018-03-27T08:05:18.663Z,101185.24
2018-03-27T08:06:22.852Z,101184.39
2018-03-27T08:07:27.047Z,101182.25
2018-03-27T08:08:33.987Z,101183.91
2018-03-27T08:09:40.614Z,101175.83
2018-03-27T08:10:47.028Z,101179.25
2018-03-27T08:11:51.880Z,101178.86
2018-03-27T08:12:56.070Z,101180.13
2018-03-27T08:14:00.283Z,101177.59
2018-03-27T08:15:07.038Z,101179.68
2018-03-27T08:16:13.888Z,101177.13
2018-03-27T08:17:18.771Z,101177.51
2018-03-27T08:18:23.124Z,101178.78
2018-03-27T08:19:27.324Z,101176.64
2018-03-27T08:20:33.284Z,101174.09
2018-03-27T08:21:40.072Z,101174.53
2018-03-27T08:22:45.928Z,101171.11
2018-03-27T08:23:50.488Z,101173.19
2018-03-27T08:24:54.694Z,101168.48
2018-03-27T08:25:58.899Z,101169.75
2018-03-27T08:27:04.696Z,101170.55
2018-03-27T08:28:11.833Z,101172.66
2018-03-27T08:29:17.225Z,101164.11
2018-03-27T08:30:21.928Z,101162.39
2018-03-27T08:31:26.891Z,101166.16
2018-03-27T08:32:31.092Z,101160.16
2018-03-27T08:33:38.322Z,101154.22
2018-03-27T08:34:43.420Z,101153.73
2018-03-27T08:35:47.638Z,101155.52
2018-03-27T08:36:51.846Z,101159.91
2018-03-27T08:37:56.047Z,101152.19
2018-03-27T08:39:00.262Z,101148.37
2018-03-27T08:40:04.759Z,101147.09
2018-03-27T08:41:11.427Z,101149.59
2018-03-27T08:42:16.567Z,101140.73
2018-03-27T08:43:21.596Z,101142.00
2018-03-27T08:44:25.810Z,101140.27
2018-03-27T08:45:30.073Z,101138.55
2018-03-27T08:46:34.392Z,101133.00
2018-03-27T08:47:39.445Z,101138.50
2018-03-27T08:48:43.712Z,101134.34
2018-03-27T08:49:48.071Z,101122.94
2018-03-27T08:50:52.721Z,101130.59
2018-03-27T08:51:56.961Z,101128.87
2018-03-27T08:53:01.947Z,101125.94
2018-03-27T08:54:07.206Z,101131.52
2018-03-27T08:55:12.333Z,101126.09
2018-03-27T08:56:16.611Z,101128.20
2018-03-27T08:57:21.710Z,101126.53
2018-03-27T08:58:25.918Z,101124.41
2018-03-27T08:59:30.124Z,101125.70
2018-03-27T09:00:37.368Z,101131.63
2018-03-27T09:01:43.960Z,101129.08
2018-03-27T09:02:48.154Z,101127.44
2018-03-27T09:03:52.389Z,101126.13
2018-03-27T09:04:56.593Z,101127.36
2018-03-27T09:06:00.795Z,101125.64
2018-03-27T09:07:09.163Z,101134.08
2018-03-27T09:08:14.618Z,101127.65
2018-03-27T09:09:18.887Z,101126.70
2018-03-27T09:10:23.074Z,101126.62
2018-03-27T09:11:27.276Z,101126.56
2018-03-27T09:12:31.503Z,101124.33
2018-03-27T09:13:38.061Z,101124.65
2018-03-27T09:14:43.307Z,101123.27
2018-03-27T09:15:47.641Z,101116.34
2018-03-27T09:16:52.628Z,101126.86
2018-03-27T09:17:56.852Z,101117.89
2018-03-27T09:19:01.042Z,101115.06
2018-03-27T09:20:05.888Z,101122.20
2018-03-27T09:21:11.526Z,101108.88
2018-03-27T09:22:16.045Z,101120.67
2018-03-27T09:23:20.374Z,101114.23
2018-03-27T09:24:24.552Z,101117.93
2018-03-27T09:25:28.742Z,101110.22
2018-03-27T09:26:34.729Z,101113.70
2018-03-27T09:27:42.007Z,101108.95
2018-03-27T09:28:47.206Z,101099.80
2018-03-27T09:29:51.469Z,101102.25
2018-03-27T09:30:57.166Z,101101.75
2018-03-27T09:32:01.457Z,101098.41
2018-03-27T09:33:09.592Z,101092.83
2018-03-27T09:34:15.020Z,101090.23
2018-03-27T09:35:19.283Z,101097.78
2018-03-27T09:36:23.489Z,101090.75
2018-03-27T09:37:27.684Z,101089.47
2018-03-27T09:38:32.735Z,101090.82
2018-03-27T09:39:38.751Z,101094.12
2018-03-27T09:40:45.675Z,101089.66
2018-03-27T09:41:50.799Z,101085.81
2018-03-27T09:42:55.783Z,101090.27
2018-03-27T09:43:59.986Z,101089.72
2018-03-27T09:45:09.478Z,101085.38
2018-03-27T09:46:18.876Z,101076.77
2018-03-27T09:47:23.324Z,101080.50
2018-03-27T09:48:29.038Z,101081.09
2018-03-27T09:49:35.008Z,101084.89
2018-03-27T09:50:41.907Z,101081.24
2018-03-27T09:51:49.180Z,101079.09
2018-03-27T09:52:54.177Z,101070.00
2018-03-27T09:53:58.396Z,101070.16
2018-03-27T09:55:03.690Z,101072.38
2018-03-27T09:56:11.087Z,101068.96
2018-03-27T09:57:17.084Z,101062.53
2018-03-27T09:58:21.459Z,101064.22
2018-03-27T09:59:25.697Z,101061.11
2018-03-27T10:00:35.822Z,101063.49
2018-03-27T10:01:43.733Z,101061.09
2018-03-27T10:02:50.818Z,101061.66
2018-03-27T10:03:55.043Z,101057.95
2018-03-27T10:04:59.260Z,101056.54
2018-03-27T10:06:05.963Z,101058.62
2018-03-27T10:07:11.729Z,101057.29
2018-03-27T10:08:18.024Z,101049.27
2018-03-27T10:09:22.662Z,101051.69
2018-03-27T10:10:27.640Z,101051.52
2018-03-27T10:11:32.684Z,101046.76
2018-03-27T10:12:39.998Z,101040.56
2018-03-27T10:13:46.865Z,101047.67
2018-03-27T10:14:51.507Z,101040.93
2018-03-27T10:15:55.760Z,101042.28
2018-03-27T10:16:59.954Z,101037.52
2018-03-27T10:18:07.791Z,101042.67
2018-03-27T10:19:13.431Z,101037.02
2018-03-27T10:20:19.621Z,101035.91
2018-03-27T10:21:23.825Z,101031.38
2018-03-27T10:22:28.023Z,101034.61
2018-03-27T10:23:33.885Z,101035.42
2018-03-27T10:24:40.823Z,101032.36
2018-03-27T10:25:46.239Z,101037.46
2018-03-27T10:26:50.990Z,101031.33
2018-03-27T10:27:55.208Z,101031.97
2018-03-27T10:28:59.423Z,101033.43
2018-03-27T10:30:06.262Z,101036.64
2018-03-27T10:31:12.578Z,101028.82
2018-03-27T10:32:18.888Z,101033.37
2018-03-27T10:33:23.441Z,101025.36
2018-03-27T10:34:27.660Z,101027.13
2018-03-27T10:35:32.207Z,101027.11
2018-03-27T10:36:38.131Z,101030.69
2018-03-27T10:37:43.133Z,101026.83
2018-03-27T10:38:49.437Z,101029.09
2018-03-27T10:39:53.746Z,101024.05
2018-03-27T10:40:57.985Z,101021.73
2018-03-27T10:42:03.460Z,101017.05
2018-03-27T10:43:11.558Z,101018.11
2018-03-27T10:44:20.043Z,101013.67
2018-03-27T10:45:24.306Z,101015.19
2018-03-27T10:46:28.525Z,101011.12
2018-03-27T10:47:36.082Z,101006.22
2018-03-27T10:48:41.669Z,101005.12
2018-03-27T10:49:47.739Z,101006.17
2018-03-27T10:50:52.537Z,101002.52
2018-03-27T10:51:56.803Z,101000.77
2018-03-27T10:53:01.085Z,101005.32
2018-03-27T10:54:10.196Z,101000.15
2018-03-27T10:55:16.422Z,100993.84
2018-03-27T10:56:21.763Z,100991.70
2018-03-27T10:57:26.088Z,100997.97
2018-03-27T10:58:30.289Z,100994.09
2018-03-27T10:59:37.486Z,100990.05
2018-03-27T11:00:45.665Z,100994.69
2018-03-27T11:01:51.097Z,100989.24
2018-03-27T11:02:55.712Z,100985.16
2018-03-27T11:03:59.967Z,100987.58
2018-03-27T11:05:06.991Z,100983.30
2018-03-27T11:06:12.826Z,100981.58
2018-03-27T11:07:19.970Z,100977.77
2018-03-27T11:08:24.984Z,100980.48
2018-03-27T11:09:29.562Z,100975.65
2018-03-27T11:10:35.506Z,100975.70
2018-03-27T11:11:41.193Z,100972.00
2018-03-27T11:12:47.597Z,100975.12
2018-03-27T11:13:52.211Z,100968.66
2018-03-27T11:14:56.472Z,100966.52
2018-03-27T11:16:01.069Z,100962.29
2018-03-27T11:17:08.084Z,100953.57
2018-03-27T11:18:13.617Z,100957.04
2018-03-27T11:19:19.447Z,100959.63
2018-03-27T11:20:23.696Z,100952.81
2018-03-27T11:21:28.380Z,100948.84
2018-03-27T11:22:34.358Z,100948.79
2018-03-27T11:23:41.218Z,100954.80
2018-03-27T11:24:48.468Z,100946.09
2018-03-27T11:25:52.751Z,100942.97
2018-03-27T11:26:57.016Z,100943.96
2018-03-27T11:28:01.235Z,100947.23
2018-03-27T11:29:10.230Z,100948.92
2018-03-27T11:30:16.844Z,100943.36
2018-03-27T11:31:21.664Z,100942.66
2018-03-27T11:32:26.286Z,100944.02
2018-03-27T11:33:30.500Z,100940.11
2018-03-27T11:34:38.516Z,100933.73
2018-03-27T11:35:44.439Z,100948.79
2018-03-27T11:36:50.539Z,100940.10
2018-03-27T11:37:55.557Z,100941.54
2018-03-27T11:39:00.556Z,100937.59
2018-03-27T11:40:07.353Z,100936.92
2018-03-27T11:41:12.762Z,100933.52
2018-03-27T11:42:18.501Z,100924.56
2018-03-27T11:43:24.130Z,100918.36
2018-03-27T11:44:28.339Z,100919.36
2018-03-27T11:45:33.676Z,100915.03
2018-03-27T11:46:39.936Z,100922.89
2018-03-27T11:47:47.178Z,100911.78
2018-03-27T11:48:52.061Z,100917.64
2018-03-27T11:49:56.267Z,100914.89
2018-03-27T11:51:00.489Z,100906.20
2018-03-27T11:52:07.303Z,100905.84
2018-03-27T11:53:13.121Z,100910.00
2018-03-27T11:54:18.549Z,100908.01
2018-03-27T11:55:22.760Z,100900.61
2018-03-27T11:56:26.961Z,100899.58
2018-03-27T11:57:31.266Z,100897.15
2018-03-27T11:58:39.459Z,100892.25
2018-03-27T11:59:44.516Z,100894.31
2018-03-27T12:00:49.245Z,100891.86
2018-03-27T12:01:53.483Z,100890.72
2018-03-27T12:02:57.691Z,100895.74
2018-03-27T12:04:02.266Z,100889.59
2018-03-27T12:05:07.475Z,100891.08
2018-03-27T12:06:15.115Z,100888.42
2018-03-27T12:07:20.269Z,100884.81
2018-03-27T12:08:24.514Z,100886.93
2018-03-27T12:09:28.746Z,100881.37
2018-03-27T12:10:33.896Z,100881.73
2018-03-27T12:11:40.252Z,100877.05
2018-03-27T12:12:46.114Z,100875.77
2018-03-27T12:13:50.498Z,100876.62
2018-03-27T12:14:54.718Z,100877.74
2018-03-27T12:15:58.972Z,100877.52
2018-03-27T12:17:05.395Z,100871.14
2018-03-27T12:18:11.340Z,100874.13
2018-03-27T12:19:17.815Z,100865.34
2018-03-27T12:20:22.131Z,100867.39
2018-03-27T12:21:26.323Z,100866.97
2018-03-27T12:22:30.598Z,100865.58
2018-03-27T12:23:36.898Z,100863.16
2018-03-27T12:24:42.482Z,100860.22
2018-03-27T12:25:49.313Z,100866.08
2018-03-27T12:26:53.540Z,100852.09
2018-03-27T12:27:57.756Z,100854.34
2018-03-27T12:29:02.864Z,100850.20
2018-03-27T12:30:10.809Z,100849.15
2018-03-27T12:31:16.830Z,100844.39
2018-03-27T12:32:21.360Z,100838.57
2018-03-27T12:33:25.599Z,100836.47
2018-03-27T12:34:29.817Z,100833.69